Flight Track Log - Related Links

Times and Time Zones

All times are in EST time to prevent confusion due to time zone crossing. See the N609RL flight status page for this flight to view local times or setup timezone preferences in your user account.

Time Position Orientation Groundspeed Altitude Reporting Facility
EST Latitude Longitude Course Direction KTS MPH feet Rate Location/Type
Thu 01:27:32 PM 39.9617 -91.3144 281° West 100 115 3,500  Level Kansas City Center
Thu 01:28:34 PM 39.9675 -91.3533 281° West 93 107 4,600 823 Climbing Kansas City Center
Thu 01:29:36 PM 39.9739 -91.3861 284° West 93 107 5,200 629 Climbing Kansas City Center
Thu 01:30:38 PM 39.9800 -91.4197 283° West 95 109 5,900 629 Climbing Kansas City Center
Thu 01:31:40 PM 39.9856 -91.4531 282° West 95 109 6,500 581 Climbing Kansas City Center
Thu 01:32:42 PM 39.9925 -91.4889 284° West 99 114 7,100 677 Climbing Kansas City Center
Thu 01:33:44 PM 39.9994 -91.5333 282° West 105 121 7,900 677 Climbing Kansas City Center
Thu 01:34:46 PM 40.0067 -91.5719 284° West 108 124 8,500 629 Climbing Kansas City Center
Thu 01:35:48 PM 40.0122 -91.6100 281° West 108 124 9,200 677 Climbing Kansas City Center
Thu 01:36:50 PM 40.0200 -91.6469 285° West 107 123 9,900 387 Climbing Kansas City Center
Thu 01:37:52 PM 40.0267 -91.6900 281° West 117 135 10,000 48 Climbing Kansas City Center
Thu 01:38:54 PM 40.0381 -91.7511 284° West 139 160 10,000 48 Level Kansas City Center
Thu 01:39:56 PM 40.0469 -91.8011 283° West 144 166 10,100 48 Climbing Kansas City Center
Thu 01:40:58 PM 40.0569 -91.8508 285° West 143 165 10,100  Level Kansas City Center
Thu 01:42:01 PM 40.0650 -91.9019 282° West 144 166 10,100  Level Kansas City Center
Thu 01:43:03 PM 40.0739 -91.9508 283° West 142 163 10,100  Level Kansas City Center
Thu 01:44:05 PM 40.0814 -92.0003 281° West 140 161 10,100  Level Kansas City Center
Thu 01:45:07 PM 40.0917 -92.0606 283° West 142 163 10,100  Level Kansas City Center
Thu 01:46:09 PM 40.1000 -92.1103 282° West 141 162 10,100  Level Kansas City Center
Thu 01:47:11 PM 40.1089 -92.1600 283° West 141 162 10,100  Level Kansas City Center
Thu 01:48:13 PM 40.1169 -92.2083 282° West 138 159 10,100  Level Kansas City Center
Thu 01:49:15 PM 40.1250 -92.2572 282° West 137 158 10,100  Level Kansas City Center
Thu 01:50:17 PM 40.1358 -92.3167 283° West 140 161 10,100  Level Kansas City Center
Thu 01:51:19 PM 40.1442 -92.3672 282° West 141 162 10,100  Level Kansas City Center
Thu 01:52:21 PM 40.1528 -92.4156 283° West 140 161 10,100  Level Kansas City Center
Thu 01:53:23 PM 40.1597 -92.4642 281° West 138 159 10,100  Level Kansas City Center
Thu 01:54:25 PM 40.1689 -92.5128 284° West 137 158 10,100  Level Kansas City Center
Thu 01:55:27 PM 40.1761 -92.5606 281° West 136 157 10,100  Level Kansas City Center
Thu 01:56:29 PM 40.1861 -92.6186 283° West 136 157 10,100  Level Kansas City Center
Thu 01:57:31 PM 40.1942 -92.6675 282° West 136 157 10,100  Level Kansas City Center
Thu 01:58:34 PM 40.2019 -92.7164 282° West 137 158 10,100  Level Kansas City Center
Thu 01:59:36 PM 40.2094 -92.7653 281° West 137 158 10,100  Level Kansas City Center
Thu 02:00:38 PM 40.2178 -92.8136 283° West 137 158 10,100  Level Kansas City Center
Thu 02:01:40 PM 40.2256 -92.8619 282° West 137 158 10,100  Level Kansas City Center
Thu 02:02:42 PM 40.2347 -92.9217 281° West 139 160 10,100  Level Kansas City Center
Thu 02:03:44 PM 40.2428 -92.9706 282° West 138 159 10,100  Level Kansas City Center
Thu 02:04:46 PM 40.2506 -93.0189 282° West 137 158 10,100  Level Kansas City Center
Thu 02:05:48 PM 40.2583 -93.0672 282° West 137 158 10,100  Level Kansas City Center
Thu 02:06:50 PM 40.2661 -93.1158 282° West 137 158 10,100  Level Kansas City Center
Thu 02:07:52 PM 40.2756 -93.1722 282° West 134 154 10,100  Level Kansas City Center
Thu 02:08:54 PM 40.2822 -93.2208 280° West 136 157 10,100  Level Kansas City Center
Thu 02:09:56 PM 40.2903 -93.2686 282° West 135 155 10,100  Level Kansas City Center
Thu 02:10:58 PM 40.2972 -93.3158 281° West 134 154 10,100  Level Kansas City Center
Thu 02:12:00 PM 40.3061 -93.3636 284° West 135 155 10,100  Level Kansas City Center
Thu 02:13:02 PM 40.3147 -93.4217 281° West 137 158 10,100  Level Kansas City Center
Thu 02:14:04 PM 40.3219 -93.4683 281° West 134 154 10,100  Level Kansas City Center
Thu 02:15:06 PM 40.3297 -93.5175 282° West 137 158 10,100  Level Kansas City Center
Thu 02:16:09 PM 40.3372 -93.5647 282° West 134 154 10,100  Level Kansas City Center
Thu 02:17:11 PM 40.3450 -93.6119 282° West 134 154 10,100  Level Kansas City Center
Thu 02:18:13 PM 40.3528 -93.6592 282° West 133 153 10,100  Level Kansas City Center
Thu 02:19:15 PM 40.3608 -93.7161 281° West 133 153 10,100  Level Kansas City Center
Thu 02:20:17 PM 40.3675 -93.7628 281° West 133 153 10,100  Level Kansas City Center
Thu 02:21:19 PM 40.3753 -93.8106 282° West 133 153 10,100 -58 Level Kansas City Center
Thu 02:22:01 PM 40.3803 -93.8497 280° West 134 154 10,000 -58 Descending Minneapolis Center
Thu 02:23:03 PM 40.3872 -93.8975 281° West 134 154 10,000  Level Minneapolis Center
Thu 02:24:05 PM 40.3958 -93.9442 284° West 133 153 10,000  Level Minneapolis Center
Thu 02:25:07 PM 40.4017 -93.9917 279° West 132 152 10,000  Level Minneapolis Center
Thu 02:26:09 PM 40.4100 -94.0394 283° West 134 154 10,000  Level Minneapolis Center
Thu 02:27:11 PM 40.4169 -94.0872 281° West 135 155 10,000  Level Minneapolis Center
Thu 02:28:13 PM 40.4258 -94.1442 282° West 134 154 10,000  Level Minneapolis Center
Thu 02:29:15 PM 40.4325 -94.1919 280° West 134 154 10,000  Level Minneapolis Center
Thu 02:30:17 PM 40.4400 -94.2414 281° West 137 158 10,000  Level Minneapolis Center
Thu 02:31:19 PM 40.4481 -94.2903 282° West 138 159 10,000  Level Minneapolis Center
Thu 02:32:21 PM 40.4550 -94.3386 281° West 137 158 10,000  Level Minneapolis Center
Thu 02:33:23 PM 40.4639 -94.3989 281° West 141 162 10,000  Level Minneapolis Center
Thu 02:34:25 PM 40.4711 -94.4489 281° West 140 161 10,000  Level Minneapolis Center
Thu 02:35:27 PM 40.4772 -94.5003 279° West 142 163 10,000  Level Minneapolis Center
Thu 02:36:29 PM 40.4861 -94.5489 284° West 140 161 10,000  Level Minneapolis Center
Thu 02:37:31 PM 40.4931 -94.6047 279° West 140 161 10,000  Level Minneapolis Center
Thu 02:38:33 PM 40.5028 -94.6539 285° West 139 160 10,000  Level Minneapolis Center
Thu 02:39:35 PM 40.5108 -94.7050 282° West 141 162 10,000 48 Level Minneapolis Center
Thu 02:40:37 PM 40.5164 -94.7572 278° West 143 165 10,100  Climbing Minneapolis Center
Thu 02:41:39 PM 40.5261 -94.8214 281° West 148 170 10,000  Descending Minneapolis Center
Thu 02:42:41 PM 40.5344 -94.8731 282° West 146 168 10,100 48 Climbing Minneapolis Center
Thu 02:43:43 PM 40.5414 -94.9256 280° West 146 168 10,100 -48 Level Minneapolis Center
Thu 02:44:45 PM 40.5489 -94.9758 281° West 142 163 10,000  Descending Minneapolis Center
Thu 02:45:47 PM 40.5561 -95.0278 280° West 143 165 10,100  Climbing Minneapolis Center
Thu 02:46:37 PM 40.5728 -95.0578 306° West 142 163 10,000 -97 Descending Minneapolis Center
Thu 02:46:49 PM 40.5628 -95.0789 238° Southwest 143 165 10,000  Level Minneapolis Center
Thu 02:47:19 PM 40.5781 -95.0983 316° Northwest 142 163 10,000  Level Minneapolis Center
Thu 02:47:51 PM 40.5736 -95.1414 262° West 145 167 10,000  Level Minneapolis Center
Thu 02:48:14 PM 40.5853 -95.1386 10° North 145 167 10,000  Level Minneapolis Center
Thu 02:48:53 PM 40.5803 -95.1958 263° West 149 171 10,000 98 Level Minneapolis Center
Thu 02:49:15 PM 40.5894 -95.1958 360° North 149 171 10,100  Climbing Minneapolis Center
Thu 02:49:55 PM 40.5858 -95.2444 264° West 144 166 10,000 -98 Descending Minneapolis Center
Thu 02:50:16 PM 40.5978 -95.2553 325° Northwest 140 161 10,000 95 Level Minneapolis Center
Thu 02:50:58 PM 40.5933 -95.2953 262° West 141 162 10,100 90 Climbing Minneapolis Center
Thu 02:51:23 PM 40.6036 -95.3067 320° Northwest 140 161 10,100 -97 Level Minneapolis Center
Thu 02:52:00 PM 40.6008 -95.3481 265° West 143 165 10,000  Descending Minneapolis Center
Thu 02:52:18 PM 40.6114 -95.3578 325° Northwest 144 166 10,100 97 Climbing Minneapolis Center
Thu 02:53:02 PM 40.6083 -95.3994 264° West 144 166 10,100 -100 Level Minneapolis Center
Thu 02:53:18 PM 40.6172 -95.4094 320° Northwest 145 167 10,000  Descending Minneapolis Center
Thu 02:54:04 PM 40.6164 -95.4508 268° West 144 166 10,100  Climbing Minneapolis Center
Thu 02:54:19 PM 40.6250 -95.4606 319° Northwest 142 163 10,000  Descending Minneapolis Center
Thu 02:55:06 PM 40.6244 -95.5103 269° West 141 162 10,100  Climbing Minneapolis Center
Thu 02:55:20 PM 40.6311 -95.5150 332° Northwest 143 165 10,000  Descending Minneapolis Center
Thu 02:56:08 PM 40.6319 -95.5628 271° West 142 163 10,100 98 Climbing Minneapolis Center
Thu 02:56:21 PM 40.6364 -95.5636 352° North 143 165 10,100 -97 Level Minneapolis Center
Thu 02:57:10 PM 40.6378 -95.6133 272° West 142 163 10,000 -98 Descending Minneapolis Center
Thu 02:57:22 PM 40.6422 -95.6153 342° North 141 162 10,000  Level Minneapolis Center
Thu 02:58:12 PM 40.6453 -95.6653 275° West 142 163 10,000  Level Minneapolis Center
Thu 02:58:23 PM 40.6500 -95.6692 328° Northwest 143 165 10,000  Level Minneapolis Center
Thu 02:59:24 PM 40.6558 -95.7236 278° West 145 167 10,000  Level Minneapolis Center
Thu 03:00:16 PM 40.6592 -95.7686 276° West 143 165 10,000 100 Level Minneapolis Center
Thu 03:00:24 PM 40.6636 -95.7747 314° West 147 169 10,100 97 Climbing Minneapolis Center
Thu 03:01:18 PM 40.6692 -95.8314 277° West 145 167 10,100  Level Minneapolis Center
Thu 03:01:25 PM 40.6694 -95.8319 303° West 146 168 10,100  Level Minneapolis Center
Thu 03:02:19 PM 40.6764 -95.8850 280° West 146 168 10,100  Level Minneapolis Center
Thu 03:02:26 PM 40.6772 -95.8833 57° Northeast 147 169 10,100  Level Minneapolis Center
Thu 03:03:21 PM 40.6831 -95.9372 278° West 146 168 10,100  Level Minneapolis Center
Thu 03:03:27 PM 40.6828 -95.9347 98° East 148 170 10,100  Level Minneapolis Center
Thu 03:04:23 PM 40.6886 -95.9897 278° West 146 168 10,100  Level Minneapolis Center
Thu 03:04:28 PM 40.6886 -95.9919 270° West 145 167 10,100  Level Minneapolis Center
Thu 03:05:25 PM 40.6978 -96.0419 284° West 146 168 10,100  Level Minneapolis Center
Thu 03:05:29 PM 40.6961 -96.0433 212° Southwest 146 168 10,100  Level Minneapolis Center
Thu 03:06:27 PM 40.7047 -96.0950 282° West 146 168 10,100  Level Minneapolis Center
Thu 03:06:29 PM 40.7014 -96.0950 180° South 146 168 10,100 -95 Level Minneapolis Center
Thu 03:07:30 PM 40.7092 -96.1464 281° West 145 167 10,000  Descending Minneapolis Center
Thu 03:08:31 PM 40.7147 -96.2033 277° West 141 162 10,100 49 Climbing Minneapolis Center
Thu 03:09:33 PM 40.7264 -96.2589 286° West 140 161 10,100  Level Minneapolis Center
Thu 03:10:33 PM 40.7253 -96.3039 268° West 143 165 10,100  Level Minneapolis Center
Thu 03:10:35 PM 40.7325 -96.3103 326° Northwest 140 161 10,100  Level Minneapolis Center
Thu 03:11:37 PM 40.7403 -96.3639 281° West 145 167 10,100  Level Minneapolis Center
Thu 03:12:34 PM 40.7383 -96.4097 267° West 144 166 10,100  Level Minneapolis Center
Thu 03:12:39 PM 40.7453 -96.4167 323° Northwest 145 167 10,100  Level Minneapolis Center
Thu 03:13:35 PM 40.7456 -96.4611 270° West 143 165 10,100  Level Minneapolis Center
Thu 03:13:40 PM 40.7522 -96.4675 324° Northwest 144 166 10,100 -358 Level Minneapolis Center
Thu 03:14:42 PM 40.7592 -96.5214 280° West 145 167 9,700 -387 Descending Minneapolis Center
Thu 03:15:44 PM 40.7694 -96.5883 281° West 149 171 9,300 -417 Descending Minneapolis Center
Thu 03:16:37 PM 40.7664 -96.6322 265° West 160 184 8,900 -387 Descending Minneapolis Center
Thu 03:16:46 PM 40.7764 -96.6469 312° West 155 178 8,900 -295 Level Minneapolis Center
Thu 03:17:38 PM 40.7742 -96.6892 266° West 160 184 8,600 -387 Descending Minneapolis Center
Thu 03:17:48 PM 40.7850 -96.7039 314° West 157 181 8,500 -393 Descending Minneapolis Center
Thu 03:18:39 PM 40.7819 -96.7489 265° West 156 180 8,200 -290 Descending Minneapolis Center
Thu 03:18:50 PM 40.7939 -96.7614 322° Northwest 158 182 8,200 -400 Level Minneapolis Center
Thu 03:19:39 PM 40.7894 -96.8086 263° West 161 185 7,800 -387 Descending Minneapolis Center
Thu 03:19:52 PM 40.8025 -96.8192 329° Northwest 159 183 7,800 -320 Level Minneapolis Center
Thu 03:20:54 PM 40.8069 -96.8800 276° West 162 186 7,400 -341 Descending Minneapolis Center
Thu 03:21:55 PM 40.7875 -96.9389 246° West 172 198 7,100 -341 Descending Minneapolis Center
Thu 03:22:57 PM 40.7700 -96.9994 249° West 177 204 6,700 -387 Descending Minneapolis Center
Thu 03:23:59 PM 40.7464 -97.0739 247° West 180 207 6,300 -387 Descending Minneapolis Center
Thu 03:25:01 PM 40.7261 -97.1347 246° West 181 208 5,900 -339 Descending Minneapolis Center
Thu 03:26:03 PM 40.7072 -97.1969 248° West 182 209 5,600 -341 Descending Minneapolis Center
Thu 03:27:04 PM 40.6872 -97.2564 246° West 181 208 5,200 -390 Descending Minneapolis Center
Thu 03:28:06 PM 40.6689 -97.3178 249° West 180 207 4,800 -387 Descending Minneapolis Center
Thu 03:29:08 PM 40.6519 -97.3764 249° West 175 201 4,400 -242 Descending Minneapolis Center
Thu 03:30:10 PM 40.6333 -97.4469 251° West 175 201 4,300 -97 Descending Minneapolis Center

Login

Don't have an account? Register now (free) for customized features, flight alerts, and more!